createdAt,value
2022-09-01T00:00:01.058Z,3.53
2022-09-01T00:07:11.178Z,5.40
2022-09-01T00:10:37.653Z,3.03
2022-09-01T00:14:30.028Z,5.87
2022-09-01T00:17:57.478Z,3.17
2022-09-01T00:20:31.149Z,4.80
2022-09-01T00:27:41.680Z,3.53
2022-09-01T02:29:42.274Z,9.40
2022-09-01T02:32:19.412Z,8.47
2022-09-01T02:34:54.752Z,8.57
2022-09-01T02:37:25.597Z,10.93
2022-09-01T02:39:53.505Z,7.57
2022-09-01T02:42:27.697Z,9.23
2022-09-01T02:44:55.440Z,8.47
2022-09-01T02:47:23.707Z,7.87
2022-09-01T02:49:51.576Z,14.33
2022-09-01T02:52:20.962Z,10.47
2022-09-01T02:54:50.068Z,10.37
2022-09-01T02:57:17.562Z,8.60
2022-09-01T02:59:44.510Z,7.90
2022-09-01T03:02:11.326Z,8.43
2022-09-01T03:04:39.050Z,11.57
2022-09-01T03:07:06.853Z,7.70
2022-09-01T03:09:35.508Z,11.73
2022-09-01T03:12:07.579Z,6.67
2022-09-01T03:14:34.357Z,7.78
2022-09-01T03:17:01.157Z,6.30
2022-09-01T03:19:37.110Z,7.33
2022-09-01T03:22:04.377Z,7.50
2022-09-01T03:24:31.080Z,6.83
2022-09-01T03:27:04.166Z,4.87
2022-09-01T03:29:30.946Z,8.90
2022-09-01T03:31:57.667Z,7.10
2022-09-01T03:34:24.651Z,8.67
2022-09-01T03:36:52.505Z,6.87
2022-09-01T03:39:19.529Z,6.27
2022-09-01T03:41:46.563Z,13.27
2022-09-01T03:44:16.404Z,7.57
2022-09-01T03:46:44.365Z,8.03
2022-09-01T03:49:17.233Z,6.63
2022-09-01T03:51:45.172Z,7.93
2022-09-01T03:54:12.848Z,4.87
2022-09-01T03:56:42.359Z,6.80
2022-09-01T03:59:17.390Z,8.97
2022-09-01T04:01:52.494Z,8.33
2022-09-01T04:04:19.377Z,9.77
2022-09-01T04:06:47.199Z,8.13
2022-09-01T04:09:14.208Z,6.67
2022-09-01T04:11:45.871Z,5.97
2022-09-01T04:14:13.782Z,12.55
2022-09-01T04:17:06.161Z,6.77
2022-09-01T04:19:37.010Z,8.93
2022-09-01T04:22:05.085Z,8.67
2022-09-01T04:24:44.455Z,9.00
2022-09-01T04:27:12.371Z,9.20
2022-09-01T04:30:01.144Z,6.00
2022-09-01T04:32:28.644Z,8.80
2022-09-01T04:34:57.289Z,7.63
2022-09-01T04:37:24.125Z,6.43
2022-09-01T04:39:57.159Z,6.03
2022-09-01T04:42:27.451Z,6.00
2022-09-01T04:44:56.737Z,4.57
2022-09-01T04:47:30.442Z,7.10
2022-09-01T04:50:04.439Z,6.57
2022-09-01T04:52:39.328Z,5.13
2022-09-01T04:55:08.917Z,3.37
2022-09-01T04:57:36.538Z,5.67
2022-09-01T05:00:11.069Z,5.47
2022-09-01T05:02:39.750Z,6.87
2022-09-01T05:05:13.229Z,6.77
2022-09-01T05:07:40.040Z,5.37
2022-09-01T05:10:07.134Z,7.10
2022-09-01T05:12:33.925Z,6.53
2022-09-01T05:15:04.237Z,6.40
2022-09-01T05:17:31.126Z,7.40
2022-09-01T05:19:58.201Z,5.90
2022-09-01T05:22:32.160Z,8.30
2022-09-01T05:25:05.360Z,6.77
2022-09-01T05:27:32.525Z,6.73
2022-09-01T05:30:08.183Z,5.47
2022-09-01T05:32:37.390Z,6.37
2022-09-01T05:35:15.184Z,5.13
2022-09-01T05:37:42.879Z,8.67
2022-09-01T05:40:23.243Z,5.73
2022-09-01T05:42:50.099Z,4.30
2022-09-01T05:45:20.544Z,9.10
2022-09-01T05:47:48.857Z,5.17
2022-09-01T05:50:16.634Z,5.40
2022-09-01T05:52:45.727Z,8.90
2022-09-01T05:55:23.595Z,8.90
2022-09-01T05:57:54.054Z,7.77
2022-09-01T06:00:28.319Z,6.83
2022-09-01T06:02:58.171Z,6.57
2022-09-01T06:06:25.005Z,6.93
2022-09-01T06:13:22.155Z,7.57
2022-09-01T06:16:54.033Z,5.80
2022-09-01T06:24:21.086Z,6.35
2022-09-01T06:27:47.602Z,8.55
2022-09-01T06:31:30.973Z,6.67
2022-09-01T06:35:11.126Z,9.85
2022-09-01T06:38:40.373Z,11.20
2022-09-01T06:42:13.172Z,5.57
2022-09-01T06:45:39.760Z,8.50
2022-09-01T06:48:37.080Z,6.27
2022-09-01T06:52:03.616Z,5.57
2022-09-01T06:55:30.273Z,9.80
2022-09-01T06:58:58.818Z,8.50
2022-09-01T07:02:27.154Z,7.23
2022-09-01T07:13:17.122Z,7.63
2022-09-01T07:16:51.881Z,7.53
2022-09-01T09:35:34.817Z,5.37
2022-09-01T09:38:33.578Z,5.13
2022-09-01T09:41:19.846Z,4.13
2022-09-01T09:43:58.970Z,4.47
2022-09-01T09:46:43.694Z,5.17
2022-09-01T09:49:14.585Z,4.67
2022-09-01T09:51:44.982Z,6.17
2022-09-01T09:54:26.347Z,7.77
2022-09-01T09:57:23.276Z,10.00
2022-09-01T10:00:00.270Z,4.50
2022-09-01T10:02:36.262Z,5.63
2022-09-01T10:05:37.453Z,6.37
2022-09-01T10:08:07.504Z,7.33
2022-09-01T10:10:58.031Z,8.70
2022-09-01T10:13:27.573Z,6.20
2022-09-01T10:15:57.617Z,5.90
2022-09-01T10:18:30.163Z,4.60
2022-09-01T10:23:31.325Z,6.83
2022-09-01T10:26:09.602Z,6.00
2022-09-01T10:29:07.203Z,5.93
2022-09-01T10:31:34.988Z,3.03
2022-09-01T10:34:05.468Z,6.23
2022-09-01T10:36:34.926Z,5.43
2022-09-01T10:39:06.136Z,4.50
2022-09-01T10:41:59.911Z,4.07
2022-09-01T10:44:32.005Z,3.28
2022-09-01T10:47:02.470Z,4.37
2022-09-01T10:49:33.018Z,5.67
2022-09-01T10:52:07.404Z,6.17
2022-09-01T10:54:51.143Z,5.50
2022-09-01T10:57:27.664Z,5.03
2022-09-01T10:59:58.578Z,5.93
2022-09-01T11:02:27.539Z,5.07
2022-09-01T11:04:54.626Z,5.23
2022-09-01T11:07:50.500Z,5.40
2022-09-01T11:10:36.076Z,6.60
2022-09-01T11:13:24.447Z,3.30
2022-09-01T11:15:51.610Z,4.88
2022-09-01T11:18:27.493Z,5.93
2022-09-01T11:20:56.300Z,5.18
2022-09-01T11:23:28.027Z,3.15
2022-09-01T11:26:20.484Z,4.95
2022-09-01T11:28:47.777Z,6.38
2022-09-01T11:31:16.908Z,5.28
2022-09-01T11:34:10.591Z,8.32
2022-09-01T11:36:48.642Z,5.32
2022-09-01T11:39:19.346Z,4.78
2022-09-01T11:42:14.734Z,5.70
2022-09-01T11:45:01.004Z,3.80
2022-09-01T11:47:41.488Z,5.07
2022-09-01T11:50:24.355Z,2.85
2022-09-01T11:53:04.644Z,6.53
2022-09-01T11:55:36.991Z,5.05
2022-09-01T11:58:05.243Z,4.63
2022-09-01T12:00:38.624Z,6.13
2022-09-01T12:03:20.175Z,7.00
2022-09-01T12:05:52.547Z,3.95
2022-09-01T12:10:51.485Z,3.45
2022-09-01T12:13:23.806Z,3.92
2022-09-01T12:16:16.857Z,6.82
2022-09-01T12:18:51.840Z,4.43
2022-09-01T12:21:29.561Z,6.32
2022-09-01T12:24:16.927Z,3.10
2022-09-01T12:26:44.929Z,5.00
2022-09-01T12:29:16.627Z,2.13
2022-09-01T12:31:45.654Z,4.43
2022-09-01T12:34:34.169Z,5.88
2022-09-01T12:37:19.530Z,2.28
2022-09-01T12:39:57.951Z,3.17
2022-09-01T12:42:27.317Z,4.05
2022-09-01T12:45:09.032Z,3.35
2022-09-01T12:47:36.271Z,4.30
2022-09-01T12:50:06.113Z,2.63
2022-09-01T12:52:44.772Z,3.83
2022-09-01T12:58:08.642Z,2.92
2022-09-01T13:01:00.285Z,6.45
2022-09-01T13:03:29.729Z,3.83
2022-09-01T13:06:02.040Z,5.32
2022-09-01T13:08:33.307Z,2.72
2022-09-01T13:11:08.223Z,7.13
2022-09-01T13:13:35.958Z,4.10
2022-09-01T13:16:13.009Z,4.18
2022-09-01T13:21:29.101Z,4.15
2022-09-01T13:23:56.378Z,5.53
2022-09-01T13:26:24.152Z,3.58
2022-09-01T13:28:51.756Z,6.47
2022-09-01T13:31:34.465Z,7.70
2022-09-01T13:34:11.018Z,7.82
2022-09-01T13:36:52.015Z,6.13
2022-09-01T13:39:20.276Z,6.82
2022-09-01T13:41:47.942Z,3.03
2022-09-01T13:44:15.581Z,5.57
2022-09-01T13:47:00.540Z,4.15
2022-09-01T13:52:14.546Z,9.77
2022-09-01T13:54:42.196Z,4.00
2022-09-01T13:57:08.867Z,3.08
2022-09-01T13:59:36.008Z,4.85
2022-09-01T14:02:02.927Z,3.78
2022-09-01T14:04:29.744Z,3.33
2022-09-01T14:06:57.125Z,5.38
2022-09-01T14:09:25.994Z,2.92
2022-09-01T14:11:54.354Z,3.70
2022-09-01T14:14:21.436Z,6.85
2022-09-01T14:16:48.953Z,6.03
2022-09-01T14:19:15.938Z,5.22
2022-09-01T14:21:42.958Z,4.30
2022-09-01T14:24:09.889Z,3.92
2022-09-01T14:26:36.746Z,3.83
2022-09-01T14:29:03.581Z,6.72
2022-09-01T14:31:30.654Z,2.70
2022-09-01T14:33:57.550Z,3.58
2022-09-01T14:36:26.394Z,7.18
2022-09-01T14:38:54.229Z,4.03
2022-09-01T14:41:24.101Z,5.38
2022-09-01T14:43:56.757Z,3.00
2022-09-01T14:46:25.696Z,5.32
2022-09-01T14:48:52.540Z,4.82
2022-09-01T14:51:25.529Z,6.65
2022-09-01T14:53:53.817Z,6.28
2022-09-01T14:56:21.721Z,6.28
2022-09-01T14:58:49.676Z,6.13
2022-09-01T15:01:33.608Z,2.72
2022-09-01T15:04:01.595Z,5.18
2022-09-01T15:06:28.384Z,4.72
2022-09-01T15:08:55.323Z,3.83
2022-09-01T15:11:22.348Z,7.78
2022-09-01T15:13:52.319Z,4.85
2022-09-01T15:16:22.382Z,3.95
2022-09-01T15:18:49.731Z,8.30
2022-09-01T15:21:28.673Z,9.45
2022-09-01T15:23:55.615Z,17.30
2022-09-01T15:26:22.765Z,7.68
2022-09-01T15:28:50.655Z,3.15
2022-09-01T15:31:19.922Z,3.90
2022-09-01T15:34:01.439Z,4.22
2022-09-01T15:36:30.126Z,3.15
2022-09-01T15:38:58.088Z,4.85
2022-09-01T15:41:30.613Z,3.05
2022-09-01T15:43:58.561Z,4.68
2022-09-01T15:46:32.864Z,26.92
2022-09-01T15:49:01.538Z,41.53
2022-09-01T15:51:33.103Z,28.55
2022-09-01T15:54:05.122Z,12.25
2022-09-01T15:56:32.408Z,25.63
2022-09-01T15:59:01.644Z,4.25
2022-09-01T16:01:31.527Z,4.18
2022-09-01T16:03:58.336Z,7.47
2022-09-01T16:06:26.499Z,4.22
2022-09-01T16:08:54.592Z,3.33
2022-09-01T16:11:23.566Z,2.85
2022-09-01T16:13:54.028Z,3.60
2022-09-01T16:16:52.121Z,8.52
2022-09-01T16:19:37.425Z,3.38
2022-09-01T16:22:30.145Z,4.43
2022-09-01T16:25:07.367Z,4.43
2022-09-01T16:27:40.135Z,4.68
2022-09-01T16:30:14.472Z,4.03
2022-09-01T16:32:45.349Z,3.92
2022-09-01T16:35:13.919Z,4.38
2022-09-01T16:38:06.604Z,3.10
2022-09-01T16:40:50.539Z,2.67
2022-09-01T16:43:31.419Z,4.50
2022-09-01T16:46:30.466Z,6.38
2022-09-01T16:49:35.943Z,6.97
2022-09-01T16:52:05.838Z,2.97
2022-09-01T16:55:13.357Z,3.00
2022-09-01T16:57:54.136Z,3.30
2022-09-01T17:00:30.953Z,3.70
2022-09-01T17:03:18.314Z,8.88
2022-09-01T17:05:56.620Z,3.10
2022-09-01T17:08:31.763Z,2.85
2022-09-01T17:11:11.438Z,3.53
2022-09-01T17:13:41.626Z,4.20
2022-09-01T17:16:42.632Z,7.28
2022-09-01T17:19:15.904Z,2.55
2022-09-01T17:22:05.643Z,4.65
2022-09-01T17:24:43.029Z,5.10
2022-09-01T17:27:24.992Z,3.40
2022-09-01T17:29:54.106Z,4.20
2022-09-01T17:33:18.544Z,3.88
2022-09-01T17:36:24.248Z,3.33
2022-09-01T17:39:03.613Z,5.38
2022-09-01T17:41:42.322Z,5.00
2022-09-01T17:44:51.589Z,2.55
2022-09-01T17:47:52.479Z,4.03
2022-09-01T17:50:24.024Z,5.30
2022-09-01T17:53:12.651Z,5.15
2022-09-01T17:55:50.349Z,3.72
2022-09-01T17:58:38.234Z,3.38
2022-09-01T18:01:37.711Z,2.70
2022-09-01T18:04:29.348Z,2.72
2022-09-01T18:07:06.537Z,3.83
2022-09-01T18:09:49.263Z,3.53
2022-09-01T18:12:24.555Z,4.93
2022-09-01T18:15:09.187Z,3.70
2022-09-01T18:17:46.445Z,2.73
2022-09-01T18:20:25.536Z,3.87
2022-09-01T18:23:22.045Z,3.23
2022-09-01T18:25:57.932Z,3.63
2022-09-01T18:28:24.844Z,4.13
2022-09-01T18:31:06.725Z,3.20
2022-09-01T18:33:45.940Z,2.55
2022-09-01T18:36:33.170Z,2.80
2022-09-01T18:39:05.985Z,4.43
2022-09-01T18:41:43.592Z,4.37
2022-09-01T18:44:33.119Z,1.97
2022-09-01T18:47:11.654Z,2.23
2022-09-01T18:49:57.400Z,3.73
2022-09-01T18:52:50.459Z,2.43
2022-09-01T18:55:47.746Z,3.47
2022-09-01T18:58:22.735Z,5.27
2022-09-01T19:00:59.969Z,3.87
2022-09-01T19:03:38.835Z,1.77
2022-09-01T19:06:12.055Z,2.50
2022-09-01T19:08:52.103Z,2.63
2022-09-01T19:11:32.708Z,2.17
2022-09-01T19:14:19.317Z,4.97
2022-09-01T19:17:04.526Z,2.07
2022-09-01T19:19:33.712Z,2.70
2022-09-01T19:22:00.542Z,3.17
2022-09-01T19:24:38.523Z,5.00
2022-09-01T19:27:11.736Z,2.47
2022-09-01T19:29:53.824Z,2.97
2022-09-01T19:32:22.664Z,1.33
2022-09-01T19:35:06.735Z,4.63
2022-09-01T19:37:33.754Z,3.87
2022-09-01T19:40:01.576Z,3.10
2022-09-01T19:42:40.849Z,3.17
2022-09-01T19:45:19.506Z,3.10
2022-09-01T19:48:06.732Z,4.53
2022-09-01T19:50:50.957Z,4.53
2022-09-01T19:53:28.176Z,5.17
2022-09-01T19:56:13.498Z,4.43
2022-09-01T19:59:14.247Z,2.40
2022-09-01T20:01:47.857Z,2.43
2022-09-01T20:04:40.553Z,3.47
2022-09-01T20:07:18.445Z,3.60
2022-09-01T20:10:16.703Z,4.07
2022-09-01T20:13:01.916Z,3.83
2022-09-01T20:15:40.542Z,3.57
2022-09-01T20:18:16.772Z,4.27
2022-09-01T20:20:48.720Z,4.93
2022-09-01T20:23:21.477Z,3.97
2022-09-01T20:26:01.447Z,2.73
2022-09-01T20:28:45.690Z,6.13
2022-09-01T20:31:25.136Z,3.27
2022-09-01T20:33:55.171Z,2.57
2022-09-01T20:36:43.643Z,5.60
2022-09-01T20:39:47.920Z,2.40
2022-09-01T20:42:31.488Z,4.47
2022-09-01T20:45:10.458Z,6.23
2022-09-01T20:47:37.361Z,3.30
2022-09-01T20:50:11.673Z,2.50
2022-09-01T20:53:06.269Z,3.30
2022-09-01T20:55:41.820Z,3.33
2022-09-01T20:58:14.510Z,3.27
2022-09-01T21:01:36.876Z,3.33
2022-09-01T21:04:22.462Z,6.00
2022-09-01T21:07:05.295Z,2.57
2022-09-01T21:10:09.815Z,4.85
2022-09-01T21:12:44.273Z,3.00
2022-09-01T21:15:17.044Z,5.00
2022-09-01T21:17:55.742Z,3.00
2022-09-01T21:20:35.387Z,3.30
2022-09-01T21:23:03.808Z,4.23
2022-09-01T21:25:33.910Z,2.77
2022-09-01T21:28:04.653Z,2.90
2022-09-01T21:30:34.927Z,2.83
2022-09-01T21:33:03.002Z,5.67
2022-09-01T21:35:29.962Z,3.30
2022-09-01T21:37:59.042Z,3.17
2022-09-01T21:40:26.706Z,3.03
2022-09-01T21:43:00.231Z,3.83
2022-09-01T21:45:27.482Z,3.43
2022-09-01T21:47:54.511Z,3.00
2022-09-01T21:50:24.221Z,3.80
2022-09-01T21:52:51.535Z,2.63
2022-09-01T21:55:22.664Z,5.00
2022-09-01T21:57:50.773Z,3.92
2022-09-01T22:00:21.174Z,5.73
2022-09-01T22:02:48.079Z,5.27
2022-09-01T22:05:15.400Z,2.17
2022-09-01T22:07:45.483Z,3.37
2022-09-01T22:10:18.419Z,6.33
2022-09-01T22:12:46.645Z,3.87
2022-09-01T22:15:16.973Z,3.13
2022-09-01T22:17:45.161Z,5.57
2022-09-01T22:20:14.531Z,3.90
2022-09-01T22:22:42.018Z,2.37
2022-09-01T22:25:11.987Z,3.47
2022-09-01T22:27:39.307Z,4.63
2022-09-01T22:30:08.209Z,2.47
2022-09-01T22:32:36.544Z,3.83
2022-09-01T22:35:09.370Z,3.70
2022-09-01T22:37:37.451Z,1.70
2022-09-01T22:40:06.083Z,4.43
2022-09-01T22:42:33.293Z,3.37
2022-09-01T22:45:00.256Z,3.90
2022-09-01T22:47:27.019Z,5.20
2022-09-01T22:49:56.568Z,3.73
2022-09-01T22:52:23.525Z,4.10
2022-09-01T22:54:51.769Z,3.83
2022-09-01T22:57:18.447Z,4.43
2022-09-01T22:59:45.558Z,3.27
2022-09-01T23:02:12.625Z,3.77
2022-09-01T23:04:40.546Z,3.53
2022-09-01T23:07:08.327Z,3.90
2022-09-01T23:09:35.855Z,3.53
2022-09-01T23:12:02.821Z,2.23
2022-09-01T23:14:29.749Z,4.97
2022-09-01T23:16:56.562Z,2.53
2022-09-01T23:19:24.048Z,3.73
2022-09-01T23:21:51.892Z,3.40
2022-09-01T23:24:19.954Z,3.43
2022-09-01T23:26:47.697Z,4.70
2022-09-01T23:29:14.802Z,3.73
2022-09-01T23:31:41.781Z,4.37
2022-09-01T23:34:09.204Z,5.03
2022-09-01T23:36:37.122Z,4.83
2022-09-01T23:39:05.328Z,4.90
2022-09-01T23:41:35.297Z,6.60
2022-09-01T23:44:06.087Z,3.10
2022-09-01T23:46:41.700Z,3.77
2022-09-01T23:49:09.809Z,4.90
2022-09-01T23:51:40.166Z,4.23
2022-09-01T23:54:07.864Z,3.80
2022-09-01T23:56:35.030Z,3.40
2022-09-01T23:59:02.404Z,3.40
